Time;durP1;ratioP1;P1;durP2;ratioP2;P2;SDS_P1;SDS_P2;PMS_P1;PMS_P2;Temp;Humidity;BMP_temperature;BMP_pressure;BME280_temperature;BME280_humidity;BME280_pressure;Samples;Min_cycle;Max_cycle;Signal;HPM_P1;HPM_P2
2023/09/19 00:00:20;;;;;;;14.45;7.28;;;;;;;;;;5091681;28;20043;-71
2023/09/19 00:02:59;;;;;;;12.50;6.45;;;;;;;;;;5091841;28;20016;-70
2023/09/19 00:05:29;;;;;;;12.70;6.18;;;;;;;;;;5105936;28;20081;-70
2023/09/19 00:08:00;;;;;;;12.77;6.55;;;;;;;;;;5091894;28;20024;-71
2023/09/19 00:10:27;;;;;;;14.82;6.53;;;;;;;;;;5092047;28;20039;-71
2023/09/19 00:12:56;;;;;;;9.85;5.95;;;;;;;;;;5089720;28;20119;-70
2023/09/19 00:15:23;;;;;;;10.32;5.82;;;;;;;;;;5089866;28;20043;-69
2023/09/19 00:17:48;;;;;;;12.95;6.97;;;;;;;;;;5089934;28;20024;-69
2023/09/19 00:20:17;;;;;;;13.00;7.47;;;;;;;;;;5089497;28;20393;-69
2023/09/19 00:22:43;;;;;;;11.65;6.60;;;;;;;;;;5090300;28;20020;-70
2023/09/19 00:25:12;;;;;;;8.85;6.38;;;;;;;;;;5090128;28;20401;-70
2023/09/19 00:27:41;;;;;;;11.75;6.13;;;;;;;;;;5089944;28;20019;-70
2023/09/19 00:30:21;;;;;;;9.13;6.25;;;;;;;;;;5092565;28;20032;-69
2023/09/19 00:32:48;;;;;;;14.35;7.00;;;;;;;;;;5078787;28;20485;-69
2023/09/19 00:35:17;;;;;;;14.90;6.78;;;;;;;;;;5095046;28;20441;-69
2023/09/19 00:37:43;;;;;;;13.60;7.18;;;;;;;;;;5094497;28;20078;-68
2023/09/19 00:40:12;;;;;;;10.27;6.40;;;;;;;;;;5094172;28;20528;-69
2023/09/19 00:42:42;;;;;;;10.82;6.57;;;;;;;;;;5094374;28;20035;-71
2023/09/19 00:45:12;;;;;;;8.35;6.40;;;;;;;;;;5095716;28;20035;-69
2023/09/19 00:47:41;;;;;;;8.63;6.20;;;;;;;;;;5095638;28;20032;-69
2023/09/19 00:50:09;;;;;;;12.88;6.45;;;;;;;;;;5094028;28;20032;-69
2023/09/19 00:52:38;;;;;;;12.18;6.80;;;;;;;;;;5094117;28;20571;-69
2023/09/19 00:55:13;;;;;;;11.27;6.28;;;;;;;;;;5094321;28;20059;-69
2023/09/19 00:57:39;;;;;;;10.32;6.28;;;;;;;;;;5095702;28;20115;-69
2023/09/19 01:00:08;;;;;;;9.48;6.45;;;;;;;;;;5095614;28;20119;-69
2023/09/19 01:02:35;;;;;;;12.20;6.25;;;;;;;;;;5095523;28;20389;-69
2023/09/19 01:05:03;;;;;;;10.48;6.75;;;;;;;;;;5096047;28;20024;-70
2023/09/19 01:07:30;;;;;;;10.38;6.30;;;;;;;;;;5096041;28;20345;-69
2023/09/19 01:09:58;;;;;;;14.85;5.93;;;;;;;;;;5095995;28;20178;-70
2023/09/19 01:12:40;;;;;;;9.13;5.50;;;;;;;;;;5094702;28;20043;-70
2023/09/19 01:15:18;;;;;;;11.00;5.68;;;;;;;;;;5094716;28;20082;-69
2023/09/19 01:17:52;;;;;;;9.57;5.57;;;;;;;;;;5095574;28;20546;-68
2023/09/19 01:20:40;;;;;;;8.77;5.43;;;;;;;;;;5093510;28;20058;-68
2023/09/19 01:23:34;;;;;;;8.85;5.85;;;;;;;;;;5093900;28;20040;-69
2023/09/19 01:26:10;;;;;;;12.85;5.25;;;;;;;;;;5093602;28;20397;-69
2023/09/19 01:28:54;;;;;;;10.45;5.22;;;;;;;;;;5093587;28;20043;-69
2023/09/19 01:31:23;;;;;;;10.95;5.47;;;;;;;;;;5093349;28;20036;-70
2023/09/19 01:34:04;;;;;;;12.10;5.45;;;;;;;;;;5095320;28;20080;-69
2023/09/19 01:36:38;;;;;;;8.10;4.90;;;;;;;;;;5094858;28;20043;-69
2023/09/19 01:39:10;;;;;;;8.80;5.00;;;;;;;;;;5093059;28;20024;-70
2023/09/19 01:42:14;;;;;;;7.15;5.45;;;;;;;;;;5091873;28;20486;-69
2023/09/19 01:45:02;;;;;;;8.98;5.20;;;;;;;;;;5094638;28;20047;-70
2023/09/19 01:47:48;;;;;;;9.57;5.25;;;;;;;;;;5092954;28;20044;-69
2023/09/19 01:50:40;;;;;;;8.55;5.55;;;;;;;;;;5093020;28;20084;-69
2023/09/19 01:53:33;;;;;;;11.73;5.50;;;;;;;;;;5091624;28;20098;-69
2023/09/19 01:56:02;;;;;;;9.95;5.13;;;;;;;;;;5076094;28;20029;-70
2023/09/19 01:58:34;;;;;;;11.70;5.25;;;;;;;;;;5093017;28;20048;-69
2023/09/19 02:01:01;;;;;;;10.90;5.30;;;;;;;;;;5092782;28;20035;-69
2023/09/19 02:03:28;;;;;;;10.20;5.22;;;;;;;;;;5094137;28;20036;-70
2023/09/19 02:05:54;;;;;;;9.68;5.60;;;;;;;;;;5094259;28;20396;-70
2023/09/19 02:08:25;;;;;;;10.00;5.65;;;;;;;;;;5093878;28;20028;-70
2023/09/19 02:10:52;;;;;;;8.40;5.13;;;;;;;;;;5093837;28;20031;-70
2023/09/19 02:13:20;;;;;;;8.65;5.22;;;;;;;;;;5092678;28;20028;-70
2023/09/19 02:15:46;;;;;;;9.85;5.38;;;;;;;;;;5093791;28;20032;-70
2023/09/19 02:18:14;;;;;;;11.18;6.05;;;;;;;;;;5092649;28;20098;-70
2023/09/19 02:20:39;;;;;;;10.52;5.65;;;;;;;;;;5092955;28;20424;-70
2023/09/19 02:23:06;;;;;;;10.60;5.82;;;;;;;;;;5092360;28;20024;-70
2023/09/19 02:25:32;;;;;;;8.50;5.43;;;;;;;;;;5092640;28;20435;-70
2023/09/19 02:28:02;;;;;;;12.10;5.55;;;;;;;;;;5093804;28;20074;-70
2023/09/19 02:30:29;;;;;;;11.25;6.35;;;;;;;;;;5092319;28;20067;-70
2023/09/19 02:32:56;;;;;;;14.68;7.90;;;;;;;;;;5092499;28;20024;-69
2023/09/19 02:35:22;;;;;;;18.38;8.55;;;;;;;;;;5093251;28;20043;-70
2023/09/19 02:37:48;;;;;;;16.20;8.80;;;;;;;;;;5093964;28;20450;-69
2023/09/19 02:40:18;;;;;;;15.50;8.48;;;;;;;;;;5093403;28;20085;-69
2023/09/19 02:42:46;;;;;;;26.15;9.43;;;;;;;;;;5093465;28;20039;-69
2023/09/19 02:45:12;;;;;;;19.23;8.45;;;;;;;;;;5094726;28;20088;-69
2023/09/19 02:47:40;;;;;;;19.80;10.20;;;;;;;;;;5093368;28;20031;-69
2023/09/19 02:50:06;;;;;;;17.45;9.43;;;;;;;;;;5091767;28;20036;-68
2023/09/19 02:52:32;;;;;;;22.35;9.38;;;;;;;;;;5091841;28;20024;-69
2023/09/19 02:54:58;;;;;;;14.05;8.07;;;;;;;;;;5091978;28;20477;-69
2023/09/19 02:57:24;;;;;;;15.45;8.82;;;;;;;;;;5093337;28;20488;-69
2023/09/19 02:59:50;;;;;;;17.17;8.48;;;;;;;;;;5074785;28;20032;-69
2023/09/19 03:02:15;;;;;;;23.67;8.93;;;;;;;;;;5091566;28;20504;-69
2023/09/19 03:04:42;;;;;;;20.17;9.30;;;;;;;;;;5093320;28;20036;-69
2023/09/19 03:07:08;;;;;;;18.45;8.20;;;;;;;;;;5091656;28;20435;-69
2023/09/19 03:09:34;;;;;;;16.35;7.93;;;;;;;;;;5091870;28;20030;-69
2023/09/19 03:12:00;;;;;;;16.15;7.95;;;;;;;;;;5091532;28;20452;-69
2023/09/19 03:14:30;;;;;;;19.08;10.30;;;;;;;;;;5091503;28;20036;-70
2023/09/19 03:16:57;;;;;;;14.70;8.90;;;;;;;;;;5091376;28;20036;-69
2023/09/19 03:19:23;;;;;;;21.10;9.80;;;;;;;;;;5091377;28;20101;-69
2023/09/19 03:21:50;;;;;;;22.00;9.43;;;;;;;;;;5091310;28;20416;-69
2023/09/19 03:24:16;;;;;;;30.63;11.23;;;;;;;;;;5091492;28;20031;-69
2023/09/19 03:26:43;;;;;;;16.95;8.57;;;;;;;;;;5091431;28;20039;-70
2023/09/19 03:29:09;;;;;;;17.25;9.10;;;;;;;;;;5092447;28;20417;-69
2023/09/19 03:31:36;;;;;;;20.83;9.15;;;;;;;;;;5087760;28;20116;-70
2023/09/19 03:34:03;;;;;;;25.00;9.00;;;;;;;;;;5090068;28;20069;-70
2023/09/19 03:36:30;;;;;;;19.90;8.75;;;;;;;;;;5089507;28;20035;-70
2023/09/19 03:38:56;;;;;;;18.55;8.82;;;;;;;;;;5090927;28;20089;-70
2023/09/19 03:41:22;;;;;;;22.38;9.43;;;;;;;;;;5090002;28;20044;-70
2023/09/19 03:43:49;;;;;;;15.68;8.00;;;;;;;;;;5090793;28;20036;-70
2023/09/19 03:46:15;;;;;;;17.95;10.05;;;;;;;;;;5090410;28;20028;-68
2023/09/19 03:48:42;;;;;;;22.25;9.68;;;;;;;;;;5091166;28;20024;-69
2023/09/19 03:51:10;;;;;;;19.10;9.40;;;;;;;;;;5090024;28;20116;-70
2023/09/19 03:53:36;;;;;;;19.30;9.85;;;;;;;;;;5107689;28;20027;-70
2023/09/19 03:56:02;;;;;;;31.15;11.05;;;;;;;;;;5090855;28;20039;-72
2023/09/19 03:58:34;;;;;;;27.85;10.70;;;;;;;;;;5108123;28;20201;-70
2023/09/19 04:01:00;;;;;;;27.08;10.90;;;;;;;;;;5091615;28;20061;-70
2023/09/19 04:03:34;;;;;;;25.05;9.73;;;;;;;;;;5089162;28;20397;-70
2023/09/19 04:06:01;;;;;;;25.27;9.95;;;;;;;;;;5090042;28;20402;-70
2023/09/19 04:08:27;;;;;;;18.40;9.00;;;;;;;;;;5089695;28;20051;-70
2023/09/19 04:10:53;;;;;;;24.95;9.65;;;;;;;;;;5089142;28;20068;-70
2023/09/19 04:13:18;;;;;;;19.80;9.82;;;;;;;;;;5090102;28;20032;-70
2023/09/19 04:15:46;;;;;;;24.88;9.38;;;;;;;;;;5095245;28;20034;-68
2023/09/19 04:18:11;;;;;;;23.55;10.38;;;;;;;;;;5109513;28;20421;-69
2023/09/19 04:20:38;;;;;;;34.33;10.73;;;;;;;;;;5109101;28;20062;-69
2023/09/19 04:23:05;;;;;;;28.30;10.13;;;;;;;;;;5110097;28;20055;-70
2023/09/19 04:25:33;;;;;;;23.90;8.82;;;;;;;;;;5104455;28;20028;-69
2023/09/19 04:27:59;;;;;;;23.02;8.30;;;;;;;;;;5088286;28;20482;-69
2023/09/19 04:30:25;;;;;;;22.98;8.63;;;;;;;;;;5069918;28;20074;-70
2023/09/19 04:32:51;;;;;;;30.45;10.43;;;;;;;;;;5071105;28;20390;-70
2023/09/19 04:35:16;;;;;;;23.25;9.07;;;;;;;;;;5074804;28;20111;-70
2023/09/19 04:37:42;;;;;;;15.60;7.97;;;;;;;;;;5111926;28;20035;-70
2023/09/19 04:40:17;;;;;;;17.70;8.90;;;;;;;;;;5104972;28;20401;-70
2023/09/19 04:42:43;;;;;;;20.58;8.30;;;;;;;;;;5089917;28;20105;-70
2023/09/19 04:45:10;;;;;;;20.42;8.52;;;;;;;;;;5091240;28;20038;-70
2023/09/19 04:47:38;;;;;;;23.05;8.65;;;;;;;;;;5091367;28;20024;-70
2023/09/19 04:50:11;;;;;;;34.53;10.05;;;;;;;;;;5091156;28;20019;-70
2023/09/19 04:52:44;;;;;;;;;;;;;;;;;;5091349;28;20032;-70
2023/09/19 04:55:16;;;;;;;34.80;11.68;;;;;;;;;;5090733;28;20119;-69
2023/09/19 04:57:47;;;;;;;29.17;11.23;;;;;;;;;;5091014;28;20052;-69
2023/09/19 05:00:24;;;;;;;17.67;10.45;;;;;;;;;;5090684;28;20039;-68
2023/09/19 05:02:51;;;;;;;15.45;9.43;;;;;;;;;;5082835;28;20034;-68
2023/09/19 05:05:18;;;;;;;17.05;8.85;;;;;;;;;;5086780;28;20024;-70
2023/09/19 05:07:46;;;;;;;21.83;9.63;;;;;;;;;;5091058;28;20463;-69
2023/09/19 05:10:13;;;;;;;33.45;11.10;;;;;;;;;;5090415;28;20043;-69
2023/09/19 05:12:39;;;;;;;22.42;10.00;;;;;;;;;;5090613;28;20126;-69
2023/09/19 05:15:09;;;;;;;24.02;9.60;;;;;;;;;;5091517;28;20059;-69
2023/09/19 05:17:35;;;;;;;24.88;9.10;;;;;;;;;;5101999;28;20035;-69
2023/09/19 05:20:15;;;;;;;23.13;8.35;;;;;;;;;;5093905;28;20040;-69
2023/09/19 05:22:42;;;;;;;22.20;10.13;;;;;;;;;;5094354;28;20044;-69
2023/09/19 05:25:09;;;;;;;20.10;9.18;;;;;;;;;;5094390;28;20028;-69
2023/09/19 05:27:36;;;;;;;22.48;9.18;;;;;;;;;;5094618;28;20097;-69
2023/09/19 05:30:02;;;;;;;20.75;9.65;;;;;;;;;;5094099;28;20477;-70
2023/09/19 05:32:28;;;;;;;35.42;12.77;;;;;;;;;;5093758;28;20048;-69
2023/09/19 05:34:56;;;;;;;17.70;9.43;;;;;;;;;;5094624;28;20383;-69
2023/09/19 05:37:23;;;;;;;29.10;10.50;;;;;;;;;;5093981;28;20036;-69
2023/09/19 05:39:49;;;;;;;28.23;9.95;;;;;;;;;;5093795;28;20065;-69
2023/09/19 05:42:15;;;;;;;17.05;9.00;;;;;;;;;;5102853;28;20505;-70
2023/09/19 05:44:41;;;;;;;34.25;9.82;;;;;;;;;;5102024;28;20122;-69
2023/09/19 05:47:08;;;;;;;18.75;8.75;;;;;;;;;;5095814;28;20094;-68
2023/09/19 05:49:38;;;;;;;15.70;9.02;;;;;;;;;;5091176;28;20024;-69
2023/09/19 05:52:06;;;;;;;13.85;8.18;;;;;;;;;;5093716;28;20040;-69
2023/09/19 05:54:33;;;;;;;15.38;8.30;;;;;;;;;;5089063;28;20077;-69
2023/09/19 05:56:58;;;;;;;14.05;7.53;;;;;;;;;;5092049;28;20713;-69
2023/09/19 05:59:24;;;;;;;12.88;7.32;;;;;;;;;;5093365;28;20020;-71
2023/09/19 06:01:52;;;;;;;14.57;7.85;;;;;;;;;;5092231;28;20073;-68
2023/09/19 06:04:19;;;;;;;11.05;7.28;;;;;;;;;;5096664;28;20107;-69
2023/09/19 06:06:45;;;;;;;11.98;7.55;;;;;;;;;;5101846;28;20088;-69
2023/09/19 06:09:11;;;;;;;17.45;7.70;;;;;;;;;;5099556;28;20457;-70
2023/09/19 06:11:37;;;;;;;11.05;7.47;;;;;;;;;;5093225;28;20042;-69
2023/09/19 06:14:03;;;;;;;12.40;7.05;;;;;;;;;;5093446;28;20039;-69
2023/09/19 06:16:31;;;;;;;12.07;7.57;;;;;;;;;;5092783;28;20035;-71
2023/09/19 06:18:59;;;;;;;19.77;7.70;;;;;;;;;;5090496;28;20107;-72
2023/09/19 06:21:26;;;;;;;11.05;6.93;;;;;;;;;;5092951;28;20047;-72
2023/09/19 06:23:53;;;;;;;17.58;7.75;;;;;;;;;;5092221;28;20023;-73
2023/09/19 06:26:19;;;;;;;18.67;9.57;;;;;;;;;;5092538;28;20085;-73
2023/09/19 06:28:44;;;;;;;13.95;7.78;;;;;;;;;;5090000;28;20020;-72
2023/09/19 06:31:10;;;;;;;12.32;7.90;;;;;;;;;;5091599;28;20035;-72
2023/09/19 06:33:40;;;;;;;17.35;8.32;;;;;;;;;;5092256;28;20047;-72
2023/09/19 06:36:07;;;;;;;16.15;8.75;;;;;;;;;;5091421;28;20032;-72
2023/09/19 06:38:35;;;;;;;12.02;8.18;;;;;;;;;;5090521;28;20034;-72
2023/09/19 06:41:04;;;;;;;20.02;7.75;;;;;;;;;;5091693;28;20093;-72
2023/09/19 06:43:31;;;;;;;13.23;8.38;;;;;;;;;;5091591;28;20024;-71
2023/09/19 06:45:57;;;;;;;15.00;7.50;;;;;;;;;;5092574;28;20101;-72
2023/09/19 06:48:25;;;;;;;10.15;6.72;;;;;;;;;;5087151;28;20458;-73
2023/09/19 06:50:52;;;;;;;14.20;7.00;;;;;;;;;;5091705;28;20501;-73
2023/09/19 06:53:18;;;;;;;15.02;6.88;;;;;;;;;;5092198;28;20024;-72
2023/09/19 06:55:45;;;;;;;13.75;8.02;;;;;;;;;;5091386;27;20401;-72
2023/09/19 06:58:11;;;;;;;15.40;6.90;;;;;;;;;;5100028;28;20023;-74
2023/09/19 07:00:38;;;;;;;14.32;6.47;;;;;;;;;;5095505;28;20040;-73
2023/09/19 07:03:07;;;;;;;11.10;6.63;;;;;;;;;;5091990;28;20338;-74
2023/09/19 07:05:37;;;;;;;11.88;6.28;;;;;;;;;;5090467;28;20393;-74
2023/09/19 07:08:03;;;;;;;12.75;5.90;;;;;;;;;;5084182;28;20054;-75
2023/09/19 07:10:30;;;;;;;9.20;5.50;;;;;;;;;;5089526;28;20043;-72
2023/09/19 07:13:02;;;;;;;10.90;5.70;;;;;;;;;;5091537;28;20032;-73
2023/09/19 07:15:30;;;;;;;12.18;5.38;;;;;;;;;;5090860;28;20525;-74
2023/09/19 07:17:56;;;;;;;17.92;6.50;;;;;;;;;;5090541;28;20162;-72
2023/09/19 07:20:31;;;;;;;10.63;6.20;;;;;;;;;;5091167;28;20036;-73
2023/09/19 07:22:59;;;;;;;10.38;5.22;;;;;;;;;;5091589;28;20069;-73
2023/09/19 07:25:26;;;;;;;10.48;5.85;;;;;;;;;;5091581;28;20141;-74
2023/09/19 07:27:52;;;;;;;8.77;5.18;;;;;;;;;;5091570;28;20051;-72
2023/09/19 07:30:17;;;;;;;11.98;5.57;;;;;;;;;;5091640;28;20078;-72
2023/09/19 07:32:43;;;;;;;9.43;4.72;;;;;;;;;;5090143;28;20038;-72
2023/09/19 07:35:09;;;;;;;11.00;5.20;;;;;;;;;;5089388;28;20315;-73
2023/09/19 07:37:36;;;;;;;12.07;5.00;;;;;;;;;;5081924;28;20039;-72
2023/09/19 07:40:09;;;;;;;8.13;4.18;;;;;;;;;;5090561;28;20024;-71
2023/09/19 07:42:40;;;;;;;10.77;4.38;;;;;;;;;;5090558;28;20043;-72
2023/09/19 07:45:14;;;;;;;9.60;4.65;;;;;;;;;;5089632;28;20040;-73
2023/09/19 07:47:45;;;;;;;9.60;4.65;;;;;;;;;;5086065;28;20122;-72
2023/09/19 07:50:11;;;;;;;17.10;5.07;;;;;;;;;;5087742;28;20119;-72
2023/09/19 07:52:39;;;;;;;8.32;3.63;;;;;;;;;;5076098;28;20020;-72
2023/09/19 07:55:10;;;;;;;13.85;4.88;;;;;;;;;;5085933;28;20247;-72
2023/09/19 07:57:37;;;;;;;6.32;3.95;;;;;;;;;;5082603;28;20500;-72
2023/09/19 08:00:07;;;;;;;10.70;3.72;;;;;;;;;;5068452;28;20036;-72
2023/09/19 08:02:38;;;;;;;8.82;4.07;;;;;;;;;;5069855;28;20179;-74
2023/09/19 08:05:09;;;;;;;8.02;4.07;;;;;;;;;;5086680;28;20032;-72
2023/09/19 08:07:39;;;;;;;8.45;3.78;;;;;;;;;;5088173;28;20437;-72
2023/09/19 08:10:15;;;;;;;6.88;4.28;;;;;;;;;;5087849;28;20516;-72
2023/09/19 08:12:46;;;;;;;11.23;5.10;;;;;;;;;;5090353;28;20047;-72
2023/09/19 08:15:13;;;;;;;15.60;4.40;;;;;;;;;;5088708;28;20043;-73
2023/09/19 08:17:40;;;;;;;6.72;3.55;;;;;;;;;;5090533;28;20032;-71
2023/09/19 08:20:07;;;;;;;8.50;4.07;;;;;;;;;;5089896;28;20458;-70
2023/09/19 08:22:34;;;;;;;7.82;4.30;;;;;;;;;;5089616;28;20024;-71
2023/09/19 08:25:04;;;;;;;7.30;3.83;;;;;;;;;;5088360;28;20334;-72
2023/09/19 08:27:30;;;;;;;8.05;3.53;;;;;;;;;;5088365;28;20224;-75
2023/09/19 08:29:56;;;;;;;8.93;4.03;;;;;;;;;;5103156;28;20024;-74
2023/09/19 08:32:24;;;;;;;9.02;4.53;;;;;;;;;;5087075;28;20116;-72
2023/09/19 08:34:50;;;;;;;7.57;3.30;;;;;;;;;;5089017;28;20097;-74
2023/09/19 08:37:18;;;;;;;8.15;4.35;;;;;;;;;;5083540;28;20028;-72
2023/09/19 08:39:44;;;;;;;9.48;4.47;;;;;;;;;;5089741;28;20382;-73
2023/09/19 08:42:11;;;;;;;7.32;4.13;;;;;;;;;;5089882;28;20421;-71
2023/09/19 08:44:40;;;;;;;7.70;4.30;;;;;;;;;;5090365;28;20106;-70
2023/09/19 08:47:13;;;;;;;6.95;4.28;;;;;;;;;;5089948;28;20040;-69
2023/09/19 08:49:55;;;;;;;7.32;3.75;;;;;;;;;;5087587;28;20059;-70
2023/09/19 08:52:36;;;;;;;13.30;5.67;;;;;;;;;;5085850;28;20039;-70
2023/09/19 08:55:10;;;;;;;7.20;4.10;;;;;;;;;;5094141;28;20044;-70
2023/09/19 08:57:41;;;;;;;8.55;4.13;;;;;;;;;;5093012;28;20113;-71
2023/09/19 09:00:11;;;;;;;8.02;4.03;;;;;;;;;;5092708;28;20071;-70
2023/09/19 09:02:42;;;;;;;7.28;4.40;;;;;;;;;;5094904;28;20085;-70
2023/09/19 09:05:11;;;;;;;6.78;4.00;;;;;;;;;;5094626;28;20039;-71
2023/09/19 09:07:40;;;;;;;12.85;4.95;;;;;;;;;;5094535;28;20024;-71
2023/09/19 09:10:07;;;;;;;8.32;4.60;;;;;;;;;;5094352;28;20089;-70
2023/09/19 09:12:40;;;;;;;8.60;4.68;;;;;;;;;;5094629;28;20078;-69
2023/09/19 09:15:08;;;;;;;7.80;3.88;;;;;;;;;;5094550;28;20028;-70
2023/09/19 09:17:34;;;;;;;7.47;4.28;;;;;;;;;;5094768;28;20024;-70
2023/09/19 09:20:00;;;;;;;8.82;4.55;;;;;;;;;;5094008;28;20036;-70
2023/09/19 09:22:26;;;;;;;7.63;4.00;;;;;;;;;;5094176;28;20028;-70
2023/09/19 09:24:53;;;;;;;11.27;4.70;;;;;;;;;;5094336;28;20529;-70
2023/09/19 09:27:20;;;;;;;8.25;3.95;;;;;;;;;;5094126;28;20445;-70
2023/09/19 09:29:49;;;;;;;9.75;5.03;;;;;;;;;;5093878;28;20154;-71
2023/09/19 09:32:29;;;;;;;11.00;5.20;;;;;;;;;;5094036;28;20043;-71
2023/09/19 09:34:57;;;;;;;10.13;5.18;;;;;;;;;;5092566;28;20157;-70
2023/09/19 09:37:24;;;;;;;12.02;5.80;;;;;;;;;;5094158;28;20485;-70
2023/09/19 09:42:46;;;;;;;12.90;4.72;;;;;;;;;;5093875;28;20043;-72
2023/09/19 09:45:13;;;;;;;8.15;4.57;;;;;;;;;;5093574;28;20073;-70
2023/09/19 09:47:58;;;;;;;8.75;4.82;;;;;;;;;;5092359;28;20047;-72
2023/09/19 09:50:48;;;;;;;9.23;4.97;;;;;;;;;;5092783;28;20119;-70
2023/09/19 09:53:29;;;;;;;8.68;4.72;;;;;;;;;;5093891;28;20040;-70
2023/09/19 09:56:06;;;;;;;7.82;4.22;;;;;;;;;;5094301;28;20559;-70
2023/09/19 09:58:48;;;;;;;15.73;5.72;;;;;;;;;;5093336;28;20077;-70
2023/09/19 10:01:15;;;;;;;8.43;4.85;;;;;;;;;;5092828;28;20074;-70
2023/09/19 10:03:47;;;;;;;11.48;5.28;;;;;;;;;;5092905;28;20035;-71
2023/09/19 10:06:27;;;;;;;10.38;4.72;;;;;;;;;;5093944;28;20039;-71
2023/09/19 10:09:12;;;;;;;10.60;5.03;;;;;;;;;;5093664;28;20040;-72
2023/09/19 10:11:45;;;;;;;10.38;6.03;;;;;;;;;;5092698;28;20079;-71
2023/09/19 10:14:13;;;;;;;9.65;5.18;;;;;;;;;;5093433;28;20036;-72
2023/09/19 10:16:45;;;;;;;10.35;4.95;;;;;;;;;;5092808;28;20126;-71
2023/09/19 10:19:17;;;;;;;15.95;5.57;;;;;;;;;;5092371;28;20515;-71
2023/09/19 10:21:45;;;;;;;9.82;4.93;;;;;;;;;;5091243;28;20435;-71
2023/09/19 10:24:10;;;;;;;10.63;5.13;;;;;;;;;;5092505;28;20476;-70
2023/09/19 10:26:39;;;;;;;8.98;5.65;;;;;;;;;;5092853;28;20050;-71
2023/09/19 10:29:07;;;;;;;10.07;4.85;;;;;;;;;;5092567;28;20450;-71
2023/09/19 10:31:36;;;;;;;12.65;5.07;;;;;;;;;;5092832;28;20127;-71
2023/09/19 10:34:09;;;;;;;11.63;5.68;;;;;;;;;;5092286;28;20116;-71
2023/09/19 10:36:36;;;;;;;9.00;5.13;;;;;;;;;;5092971;28;20040;-71
2023/09/19 10:39:06;;;;;;;10.32;5.50;;;;;;;;;;5092606;28;20050;-71
2023/09/19 10:41:34;;;;;;;9.63;4.78;;;;;;;;;;5092719;28;20135;-71
2023/09/19 10:44:07;;;;;;;7.53;5.20;;;;;;;;;;5090117;28;20107;-71
2023/09/19 10:46:33;;;;;;;10.63;5.05;;;;;;;;;;5089226;28;20062;-71
2023/09/19 10:49:00;;;;;;;7.95;5.22;;;;;;;;;;5091276;28;20538;-71
2023/09/19 10:51:31;;;;;;;8.52;5.07;;;;;;;;;;5090356;28;20028;-72
2023/09/19 10:54:07;;;;;;;6.72;4.60;;;;;;;;;;5092524;28;20040;-71
2023/09/19 10:56:41;;;;;;;12.68;5.80;;;;;;;;;;5091827;28;20044;-72
2023/09/19 10:59:21;;;;;;;7.00;5.03;;;;;;;;;;5092907;28;20043;-71
2023/09/19 11:01:56;;;;;;;10.45;5.55;;;;;;;;;;5092292;28;20035;-72
2023/09/19 11:04:30;;;;;;;14.57;5.18;;;;;;;;;;5092417;28;20040;-72
2023/09/19 11:07:11;;;;;;;8.60;5.30;;;;;;;;;;5090859;28;20491;-72
2023/09/19 11:09:47;;;;;;;11.15;5.10;;;;;;;;;;5091695;28;20135;-71
2023/09/19 11:12:36;;;;;;;11.02;4.65;;;;;;;;;;5091812;28;20032;-71
2023/09/19 11:15:07;;;;;;;10.35;5.53;;;;;;;;;;5091661;28;20494;-72
2023/09/19 11:17:41;;;;;;;12.25;4.60;;;;;;;;;;5091571;28;20493;-72
2023/09/19 11:22:58;;;;;;;9.60;5.22;;;;;;;;;;5092787;28;20040;-74
2023/09/19 11:25:30;;;;;;;9.25;4.95;;;;;;;;;;5092444;28;20032;-73
2023/09/19 11:28:18;;;;;;;7.00;4.45;;;;;;;;;;5091346;28;20038;-72
2023/09/19 11:30:45;;;;;;;10.48;4.80;;;;;;;;;;5090739;28;20040;-72
2023/09/19 11:33:33;;;;;;;8.30;5.07;;;;;;;;;;5092751;28;20028;-72
2023/09/19 11:36:03;;;;;;;11.93;5.85;;;;;;;;;;5090672;28;20461;-73
2023/09/19 11:38:45;;;;;;;8.63;5.32;;;;;;;;;;5091688;28;20035;-72
2023/09/19 11:41:26;;;;;;;10.05;5.65;;;;;;;;;;5091739;28;20043;-74
2023/09/19 11:44:03;;;;;;;12.05;5.93;;;;;;;;;;5091176;28;20446;-73
2023/09/19 11:46:32;;;;;;;10.45;4.90;;;;;;;;;;5091057;28;20085;-73
2023/09/19 11:49:10;;;;;;;10.45;5.55;;;;;;;;;;5091181;28;20045;-71
2023/09/19 11:51:44;;;;;;;9.23;4.40;;;;;;;;;;5091312;28;20115;-72
2023/09/19 11:54:21;;;;;;;12.85;4.85;;;;;;;;;;5091795;28;20456;-72
2023/09/19 11:56:53;;;;;;;11.27;4.60;;;;;;;;;;5091683;28;20039;-73
2023/09/19 11:59:23;;;;;;;9.50;4.78;;;;;;;;;;5091482;28;20459;-73
2023/09/19 12:02:02;;;;;;;6.32;4.70;;;;;;;;;;5091608;28;20050;-73
2023/09/19 12:04:39;;;;;;;6.75;4.63;;;;;;;;;;5091737;28;20036;-74
2023/09/19 12:07:19;;;;;;;10.70;5.00;;;;;;;;;;5092072;28;20563;-75
2023/09/19 12:09:48;;;;;;;6.80;4.35;;;;;;;;;;5092559;28;20031;-76
2023/09/19 12:12:27;;;;;;;7.07;4.88;;;;;;;;;;5091566;28;20020;-76
2023/09/19 12:14:55;;;;;;;14.75;5.20;;;;;;;;;;5091299;28;20103;-76
2023/09/19 12:17:24;;;;;;;12.18;5.75;;;;;;;;;;5091322;28;20032;-75
2023/09/19 12:19:53;;;;;;;9.15;5.40;;;;;;;;;;5091232;28;20111;-75
2023/09/19 12:22:22;;;;;;;11.50;4.90;;;;;;;;;;5091604;28;20028;-77
2023/09/19 12:24:50;;;;;;;10.00;5.10;;;;;;;;;;5090716;28;20476;-76
2023/09/19 12:27:16;;;;;;;6.60;4.45;;;;;;;;;;5091417;28;20020;-76
2023/09/19 12:29:49;;;;;;;8.00;5.30;;;;;;;;;;5091637;28;20040;-73
2023/09/19 12:32:21;;;;;;;;;;;;;;;;;;5091888;28;20036;-75
2023/09/19 12:34:52;;;;;;;7.35;4.88;;;;;;;;;;5091338;28;20293;-76
2023/09/19 12:37:22;;;;;;;9.27;4.93;;;;;;;;;;5091549;28;20056;-75
2023/09/19 12:39:51;;;;;;;10.68;5.25;;;;;;;;;;5091336;28;20093;-75
2023/09/19 12:42:19;;;;;;;9.45;5.22;;;;;;;;;;5089672;28;20443;-75
2023/09/19 12:44:47;;;;;;;12.55;5.22;;;;;;;;;;5091173;28;20540;-75
2023/09/19 12:47:16;;;;;;;11.57;5.10;;;;;;;;;;5091177;28;20024;-76
2023/09/19 12:50:16;;;;;;;7.63;4.80;;;;;;;;;;5091184;28;20036;-75
2023/09/19 12:52:51;;;;;;;9.48;4.90;;;;;;;;;;5091094;28;20059;-76
2023/09/19 12:55:32;;;;;;;11.65;4.80;;;;;;;;;;5091033;28;20106;-75
2023/09/19 12:58:19;;;;;;;8.18;4.40;;;;;;;;;;5089978;28;20040;-74
2023/09/19 13:00:45;;;;;;;9.52;4.70;;;;;;;;;;5091034;28;20067;-76
2023/09/19 13:03:34;;;;;;;17.95;5.80;;;;;;;;;;5091346;28;20024;-75
2023/09/19 13:06:03;;;;;;;12.05;5.72;;;;;;;;;;5091029;28;20075;-75
2023/09/19 13:08:37;;;;;;;12.80;5.47;;;;;;;;;;5091060;28;20032;-74
2023/09/19 13:11:20;;;;;;;12.48;5.45;;;;;;;;;;5091050;28;20032;-74
2023/09/19 13:14:16;;;;;;;10.20;4.50;;;;;;;;;;5091458;28;20055;-75
2023/09/19 13:17:04;;;;;;;8.13;5.10;;;;;;;;;;5091160;28;20024;-75
2023/09/19 13:19:40;;;;;;;8.88;4.43;;;;;;;;;;5091512;28;20461;-75
2023/09/19 13:22:49;;;;;;;12.30;5.25;;;;;;;;;;5091116;28;20111;-74
2023/09/19 13:25:20;;;;;;;8.80;5.30;;;;;;;;;;5090375;28;20059;-75
2023/09/19 13:27:52;;;;;;;10.18;5.35;;;;;;;;;;5091507;28;20548;-75
2023/09/19 13:30:18;;;;;;;9.95;4.97;;;;;;;;;;5090938;28;20112;-74
2023/09/19 13:32:45;;;;;;;7.90;4.53;;;;;;;;;;5089180;28;20020;-72
2023/09/19 13:35:12;;;;;;;8.70;4.82;;;;;;;;;;5090922;28;20058;-72
2023/09/19 13:37:42;;;;;;;8.63;5.03;;;;;;;;;;5092569;28;20113;-72
2023/09/19 13:40:12;;;;;;;7.18;5.18;;;;;;;;;;5105760;28;20032;-72
2023/09/19 13:42:39;;;;;;;6.55;4.45;;;;;;;;;;5092745;28;20032;-71
2023/09/19 13:45:06;;;;;;;8.10;4.80;;;;;;;;;;5091029;28;20024;-72
2023/09/19 13:47:32;;;;;;;7.28;4.88;;;;;;;;;;5091517;28;20036;-73
2023/09/19 13:49:59;;;;;;;9.65;4.68;;;;;;;;;;5092400;28;20102;-71
2023/09/19 13:52:27;;;;;;;12.52;4.97;;;;;;;;;;5091586;28;20114;-73
2023/09/19 13:54:56;;;;;;;11.88;5.07;;;;;;;;;;5090902;28;20504;-72
2023/09/19 13:57:24;;;;;;;6.40;4.72;;;;;;;;;;5092896;28;20048;-72
2023/09/19 13:59:49;;;;;;;10.57;4.85;;;;;;;;;;5092487;28;20028;-73
2023/09/19 14:02:18;;;;;;;12.02;5.00;;;;;;;;;;5092845;28;20432;-72
2023/09/19 14:04:44;;;;;;;8.65;5.30;;;;;;;;;;5093266;28;20028;-72
2023/09/19 14:07:10;;;;;;;12.65;5.45;;;;;;;;;;5093214;28;20040;-72
2023/09/19 14:09:37;;;;;;;12.55;5.13;;;;;;;;;;5092604;28;20442;-73
2023/09/19 14:12:03;;;;;;;11.15;5.88;;;;;;;;;;5092830;28;20405;-72
2023/09/19 14:14:29;;;;;;;9.52;4.88;;;;;;;;;;5091936;28;20429;-72
2023/09/19 14:16:54;;;;;;;11.48;6.05;;;;;;;;;;5077744;28;20044;-71
2023/09/19 14:19:21;;;;;;;7.45;4.68;;;;;;;;;;5071790;28;20537;-71
2023/09/19 14:21:47;;;;;;;8.52;5.03;;;;;;;;;;5083122;28;20068;-72
2023/09/19 14:24:19;;;;;;;8.55;4.68;;;;;;;;;;5091555;28;20039;-71
2023/09/19 14:26:45;;;;;;;6.75;4.80;;;;;;;;;;5071548;28;20093;-71
2023/09/19 14:29:11;;;;;;;10.63;5.13;;;;;;;;;;5072081;28;20020;-72
2023/09/19 14:31:39;;;;;;;8.95;5.25;;;;;;;;;;5074740;28;20036;-71
2023/09/19 14:34:06;;;;;;;9.50;5.45;;;;;;;;;;5093248;28;20016;-72
2023/09/19 14:36:35;;;;;;;12.25;5.22;;;;;;;;;;5092960;28;20028;-71
2023/09/19 14:39:02;;;;;;;9.45;5.13;;;;;;;;;;5092697;28;20059;-73
2023/09/19 14:41:28;;;;;;;7.95;4.95;;;;;;;;;;5092429;28;20024;-71
2023/09/19 14:43:57;;;;;;;9.55;5.00;;;;;;;;;;5093308;28;20611;-71
2023/09/19 14:46:26;;;;;;;9.07;5.32;;;;;;;;;;5091802;28;20027;-71
2023/09/19 14:48:52;;;;;;;8.85;5.00;;;;;;;;;;5092338;28;20046;-71
2023/09/19 14:51:19;;;;;;;7.10;5.38;;;;;;;;;;5092469;28;20012;-72
2023/09/19 14:53:46;;;;;;;9.32;5.25;;;;;;;;;;5092926;28;20031;-73
2023/09/19 14:56:15;;;;;;;12.43;5.55;;;;;;;;;;5092732;28;20024;-72